Time,TemperatureF,DewpointF,PressureIn,WindDirection,WindDirectionDegrees,WindSpeedMPH,WindSpeedGustMPH,Humidity,HourlyPrecipIn,Conditions,Clouds,dailyrainin,SoftwareType,DateUTC
2013-01-29 00:00:00,50.4,46.4,30.18,WNW,302,0.0,1.0,86,0.00,,,0.04,LWC V2.00 B2112,2013-01-29 05:00:00,
2013-01-29 00:05:00,50.4,46.4,30.18,WNW,302,0.0,0.0,86,0.00,,,0.04,LWC V2.00 B2112,2013-01-29 05:05:00,
2013-01-29 00:10:00,50.4,46.4,30.18,WNW,302,0.0,1.0,86,0.00,,,0.04,LWC V2.00 B2112,2013-01-29 05:10:00,
2013-01-29 00:15:00,50.4,46.7,30.18,WNW,302,0.0,1.0,87,0.00,,,0.04,LWC V2.00 B2112,2013-01-29 05:15:00,
2013-01-29 00:20:00,50.5,46.8,30.18,WNW,302,0.0,1.0,87,0.00,,,0.04,LWC V2.00 B2112,2013-01-29 05:20:00,
2013-01-29 00:25:00,50.7,47.0,30.18,WNW,302,0.0,0.0,87,0.00,,,0.04,LWC V2.00 B2112,2013-01-29 05:25:00,
2013-01-29 00:30:00,50.8,47.1,30.18,WNW,302,0.0,0.0,87,0.00,,,0.04,LWC V2.00 B2112,2013-01-29 05:30:00,
2013-01-29 00:35:00,50.8,47.1,30.18,WNW,302,0.0,0.0,87,0.00,,,0.04,LWC V2.00 B2112,2013-01-29 05:35:00,
2013-01-29 00:40:00,50.8,47.1,30.18,WNW,302,0.0,0.0,87,0.00,,,0.04,LWC V2.00 B2112,2013-01-29 05:40:00,
2013-01-29 00:45:00,50.7,47.3,30.18,NW,304,0.0,2.0,88,0.00,,,0.04,LWC V2.00 B2112,2013-01-29 05:45:00,
2013-01-29 00:50:00,50.7,47.3,30.18,NW,304,0.0,1.0,88,0.00,,,0.04,LWC V2.00 B2112,2013-01-29 05:50:00,
2013-01-29 00:55:00,50.7,47.3,30.18,NW,304,0.0,1.0,88,0.00,,,0.04,LWC V2.00 B2112,2013-01-29 05:55:00,
2013-01-29 01:00:00,50.8,47.7,30.18,NW,304,0.0,0.0,89,0.00,,,0.04,LWC V2.00 B2112,2013-01-29 06:00:00,
2013-01-29 01:05:00,50.8,47.4,30.17,NW,304,0.0,1.0,88,0.00,,,0.04,LWC V2.00 B2112,2013-01-29 06:05:00,
2013-01-29 01:10:00,50.8,47.7,30.17,NW,304,0.0,0.0,89,0.00,,,0.04,LWC V2.00 B2112,2013-01-29 06:10:00,
2013-01-29 01:15:00,50.8,47.7,30.17,NW,304,0.0,0.0,89,0.00,,,0.04,LWC V2.00 B2112,2013-01-29 06:15:00,
2013-01-29 01:20:00,50.7,47.6,30.17,NW,304,0.0,1.0,89,0.00,,,0.04,LWC V2.00 B2112,2013-01-29 06:20:00,
2013-01-29 01:25:00,50.8,48.0,30.17,NW,304,0.0,1.0,90,0.00,,,0.04,LWC V2.00 B2112,2013-01-29 06:25:00,
2013-01-29 01:30:00,51.0,48.2,30.17,NNW,344,0.0,1.0,90,0.00,,,0.04,LWC V2.00 B2112,2013-01-29 06:30:00,
2013-01-29 01:35:00,51.0,48.2,30.17,East,88,0.0,0.0,90,0.00,,,0.04,LWC V2.00 B2112,2013-01-29 06:35:00,
2013-01-29 01:40:00,51.1,48.3,30.17,NE,34,0.0,2.0,90,0.00,,,0.04,LWC V2.00 B2112,2013-01-29 06:40:00,
2013-01-29 01:45:00,51.0,48.2,30.17,NNE,13,0.0,0.0,90,0.00,,,0.04,LWC V2.00 B2112,2013-01-29 06:45:00,
2013-01-29 01:50:00,51.0,48.2,30.17,ENE,60,0.0,2.0,90,0.00,,,0.04,LWC V2.00 B2112,2013-01-29 06:50:00,
2013-01-29 01:55:00,51.0,48.2,30.17,NW,315,1.0,2.0,90,0.00,,,0.04,LWC V2.00 B2112,2013-01-29 06:55:00,
2013-01-29 02:00:00,51.0,48.2,30.17,NW,315,0.0,0.0,90,0.00,,,0.04,LWC V2.00 B2112,2013-01-29 07:00:00,
2013-01-29 02:05:00,50.8,48.0,30.16,NW,315,0.0,0.0,90,0.00,,,0.04,LWC V2.00 B2112,2013-01-29 07:05:00,
2013-01-29 02:10:00,50.7,47.6,30.16,NW,315,0.0,0.0,89,0.00,,,0.04,LWC V2.00 B2112,2013-01-29 07:10:00,
2013-01-29 02:15:00,50.5,47.4,30.16,NW,315,0.0,0.0,89,0.00,,,0.04,LWC V2.00 B2112,2013-01-29 07:15:00,
2013-01-29 02:20:00,50.2,47.1,30.16,NW,315,0.0,0.0,89,0.00,,,0.04,LWC V2.00 B2112,2013-01-29 07:20:00,
2013-01-29 02:25:00,49.9,46.8,30.16,NW,315,0.0,0.0,89,0.00,,,0.04,LWC V2.00 B2112,2013-01-29 07:25:00,
2013-01-29 02:30:00,49.6,46.8,30.16,NW,315,0.0,0.0,90,0.00,,,0.04,LWC V2.00 B2112,2013-01-29 07:30:00,
2013-01-29 02:35:00,49.4,46.6,30.16,NW,315,0.0,0.0,90,0.00,,,0.04,LWC V2.00 B2112,2013-01-29 07:35:00,
2013-01-29 02:40:00,49.1,46.3,30.16,NW,315,0.0,0.0,90,0.00,,,0.04,LWC V2.00 B2112,2013-01-29 07:40:00,
2013-01-29 02:45:00,48.8,46.0,30.16,NW,315,0.0,0.0,90,0.00,,,0.04,LWC V2.00 B2112,2013-01-29 07:45:00,
2013-01-29 02:50:00,48.3,45.5,30.16,NW,315,0.0,0.0,90,0.00,,,0.04,LWC V2.00 B2112,2013-01-29 07:50:00,
2013-01-29 02:55:00,48.0,45.2,30.16,NW,315,0.0,0.0,90,0.00,,,0.04,LWC V2.00 B2112,2013-01-29 07:55:00,
2013-01-29 03:00:00,47.6,44.8,30.16,NW,315,0.0,0.0,90,0.00,,,0.04,LWC V2.00 B2112,2013-01-29 08:00:00,
2013-01-29 03:05:00,47.3,44.8,30.16,NW,315,0.0,0.0,91,0.00,,,0.04,LWC V2.00 B2112,2013-01-29 08:05:00,
2013-01-29 03:10:00,47.1,44.9,30.16,NW,315,0.0,0.0,92,0.00,,,0.04,LWC V2.00 B2112,2013-01-29 08:10:00,
2013-01-29 03:15:00,46.8,44.6,30.16,NW,315,0.0,0.0,92,0.00,,,0.04,LWC V2.00 B2112,2013-01-29 08:15:00,
2013-01-29 03:20:00,46.5,44.3,30.16,NW,315,0.0,0.0,92,0.00,,,0.04,LWC V2.00 B2112,2013-01-29 08:20:00,
2013-01-29 03:25:00,46.4,44.2,30.16,NW,315,0.0,0.0,92,0.00,,,0.04,LWC V2.00 B2112,2013-01-29 08:25:00,
2013-01-29 03:30:00,46.2,44.0,30.16,NW,315,0.0,0.0,92,0.00,,,0.04,LWC V2.00 B2112,2013-01-29 08:30:00,
2013-01-29 03:35:00,46.1,43.9,30.15,NW,315,0.0,0.0,92,0.00,,,0.04,LWC V2.00 B2112,2013-01-29 08:35:00,
2013-01-29 03:40:00,46.0,43.8,30.15,NW,315,0.0,0.0,92,0.00,,,0.04,LWC V2.00 B2112,2013-01-29 08:40:00,
2013-01-29 03:45:00,45.7,43.8,30.15,NW,315,0.0,0.0,93,0.00,,,0.04,LWC V2.00 B2112,2013-01-29 08:45:00,
2013-01-29 03:50:00,45.5,43.6,30.15,NW,315,0.0,0.0,93,0.00,,,0.04,LWC V2.00 B2112,2013-01-29 08:50:00,
2013-01-29 03:55:00,45.7,44.1,30.15,NW,315,0.0,0.0,94,0.00,,,0.04,LWC V2.00 B2112,2013-01-29 08:55:00,
2013-01-29 04:00:00,45.7,44.1,30.15,NW,315,0.0,0.0,94,0.00,,,0.04,LWC V2.00 B2112,2013-01-29 09:00:00,
2013-01-29 04:05:00,45.8,44.2,30.15,NW,315,0.0,0.0,94,0.00,,,0.04,LWC V2.00 B2112,2013-01-29 09:05:00,
2013-01-29 04:10:00,45.7,44.1,30.15,NW,315,0.0,0.0,94,0.00,,,0.04,LWC V2.00 B2112,2013-01-29 09:10:00,
2013-01-29 04:15:00,45.5,43.9,30.15,NW,315,0.0,0.0,94,0.00,,,0.04,LWC V2.00 B2112,2013-01-29 09:15:00,
2013-01-29 04:20:00,45.5,44.2,30.14,NW,315,0.0,0.0,95,0.00,,,0.04,LWC V2.00 B2112,2013-01-29 09:20:00,
2013-01-29 04:25:00,45.5,44.2,30.14,NW,315,0.0,0.0,95,0.00,,,0.04,LWC V2.00 B2112,2013-01-29 09:25:00,
2013-01-29 04:30:00,45.5,44.2,30.14,NW,315,0.0,0.0,95,0.00,,,0.04,LWC V2.00 B2112,2013-01-29 09:30:00,
2013-01-29 04:35:00,45.5,44.2,30.14,NW,315,0.0,0.0,95,0.00,,,0.04,LWC V2.00 B2112,2013-01-29 09:35:00,
2013-01-29 04:40:00,45.5,44.2,30.14,NW,315,0.0,0.0,95,0.00,,,0.04,LWC V2.00 B2112,2013-01-29 09:40:00,
2013-01-29 04:45:00,45.5,44.2,30.14,NW,315,0.0,0.0,95,0.00,,,0.04,LWC V2.00 B2112,2013-01-29 09:45:00,
2013-01-29 04:50:00,45.7,44.6,30.14,NW,315,0.0,0.0,96,0.00,,,0.04,LWC V2.00 B2112,2013-01-29 09:50:00,
2013-01-29 04:55:00,45.7,44.3,30.14,NW,315,0.0,0.0,95,0.00,,,0.04,LWC V2.00 B2112,2013-01-29 09:55:00,
2013-01-29 05:00:00,45.5,44.2,30.14,NW,315,0.0,0.0,95,0.00,,,0.04,LWC V2.00 B2112,2013-01-29 10:00:00,
2013-01-29 05:05:00,45.4,44.1,30.13,NW,315,0.0,0.0,95,0.00,,,0.04,LWC V2.00 B2112,2013-01-29 10:05:00,
2013-01-29 05:10:00,45.2,43.9,30.13,NW,315,0.0,0.0,95,0.00,,,0.04,LWC V2.00 B2112,2013-01-29 10:10:00,
2013-01-29 05:15:00,45.4,44.3,30.13,NW,315,0.0,0.0,96,0.00,,,0.04,LWC V2.00 B2112,2013-01-29 10:15:00,
2013-01-29 05:20:00,45.2,43.9,30.14,NW,315,0.0,0.0,95,0.00,,,0.04,LWC V2.00 B2112,2013-01-29 10:20:00,
2013-01-29 05:25:00,45.1,44.0,30.14,NW,315,0.0,0.0,96,0.00,,,0.04,LWC V2.00 B2112,2013-01-29 10:25:00,
2013-01-29 05:30:00,45.2,44.1,30.14,NW,315,0.0,0.0,96,0.00,,,0.04,LWC V2.00 B2112,2013-01-29 10:30:00,
2013-01-29 05:35:00,45.4,44.3,30.14,NW,315,0.0,0.0,96,0.00,,,0.04,LWC V2.00 B2112,2013-01-29 10:35:00,
2013-01-29 05:40:00,45.2,44.1,30.14,NW,315,0.0,0.0,96,0.00,,,0.04,LWC V2.00 B2112,2013-01-29 10:40:00,
2013-01-29 05:45:00,45.2,44.1,30.14,NW,315,0.0,2.0,96,0.00,,,0.04,LWC V2.00 B2112,2013-01-29 10:45:00,
2013-01-29 05:50:00,45.5,44.7,30.15,NW,315,0.0,0.0,97,0.00,,,0.04,LWC V2.00 B2112,2013-01-29 10:50:00,
2013-01-29 05:55:00,45.8,45.0,30.15,NW,315,0.0,1.0,97,0.00,,,0.04,LWC V2.00 B2112,2013-01-29 10:55:00,
2013-01-29 06:00:00,46.1,45.3,30.15,NW,315,0.0,0.0,97,0.00,,,0.04,LWC V2.00 B2112,2013-01-29 11:00:00,
2013-01-29 06:05:00,46.1,45.3,30.14,NW,315,0.0,0.0,97,0.00,,,0.04,LWC V2.00 B2112,2013-01-29 11:05:00,
2013-01-29 06:10:00,46.4,45.6,30.14,NW,315,0.0,0.0,97,0.00,,,0.04,LWC V2.00 B2112,2013-01-29 11:10:00,
2013-01-29 06:15:00,46.5,45.7,30.14,NW,315,0.0,0.0,97,0.00,,,0.04,LWC V2.00 B2112,2013-01-29 11:15:00,
2013-01-29 06:21:00,46.7,45.9,30.14,NW,315,0.0,0.0,97,0.00,,,0.04,LWC V2.00 B2112,2013-01-29 11:21:00,
2013-01-29 06:26:00,46.8,46.0,30.14,NW,315,0.0,0.0,97,0.00,,,0.04,LWC V2.00 B2112,2013-01-29 11:26:00,
2013-01-29 06:31:00,46.7,45.9,30.14,NW,315,0.0,0.0,97,0.00,,,0.04,LWC V2.00 B2112,2013-01-29 11:31:00,
2013-01-29 06:36:00,46.5,45.7,30.14,NW,315,0.0,0.0,97,0.00,,,0.04,LWC V2.00 B2112,2013-01-29 11:36:00,
2013-01-29 06:41:00,46.5,45.7,30.14,NW,315,0.0,0.0,97,0.00,,,0.04,LWC V2.00 B2112,2013-01-29 11:41:00,
2013-01-29 06:46:00,46.7,45.9,30.14,NW,315,0.0,0.0,97,0.00,,,0.04,LWC V2.00 B2112,2013-01-29 11:46:00,
2013-01-29 06:51:00,46.5,45.7,30.15,NW,315,0.0,0.0,97,0.00,,,0.00,LWC V2.00 B2112,2013-01-29 11:51:00,
2013-01-29 06:56:00,46.4,45.6,30.15,NW,315,0.0,0.0,97,0.00,,,0.00,LWC V2.00 B2112,2013-01-29 11:56:00,
2013-01-29 07:01:00,46.5,45.7,30.15,NW,315,0.0,0.0,97,0.00,,,0.00,LWC V2.00 B2112,2013-01-29 12:01:00,
2013-01-29 07:06:00,46.5,45.7,30.15,NW,315,0.0,0.0,97,0.00,,,0.00,LWC V2.00 B2112,2013-01-29 12:06:00,
2013-01-29 07:11:00,46.4,45.6,30.15,NW,315,0.0,0.0,97,0.00,,,0.00,LWC V2.00 B2112,2013-01-29 12:11:00,
2013-01-29 07:16:00,46.2,45.4,30.15,NW,315,0.0,0.0,97,0.00,,,0.00,LWC V2.00 B2112,2013-01-29 12:16:00,
2013-01-29 07:21:00,46.4,45.6,30.15,NW,315,0.0,0.0,97,0.00,,,0.00,LWC V2.00 B2112,2013-01-29 12:21:00,
2013-01-29 07:26:00,46.5,45.7,30.15,NW,315,0.0,0.0,97,0.00,,,0.00,LWC V2.00 B2112,2013-01-29 12:26:00,
2013-01-29 07:31:00,46.4,45.6,30.15,NW,315,0.0,0.0,97,0.00,,,0.00,LWC V2.00 B2112,2013-01-29 12:31:00,
2013-01-29 07:36:00,46.2,45.4,30.15,NW,315,0.0,0.0,97,0.00,,,0.00,LWC V2.00 B2112,2013-01-29 12:36:00,
2013-01-29 07:41:00,46.0,45.2,30.15,NW,315,0.0,0.0,97,0.00,,,0.00,LWC V2.00 B2112,2013-01-29 12:41:00,
2013-01-29 07:46:00,46.0,45.2,30.15,NW,315,0.0,0.0,97,0.00,,,0.00,LWC V2.00 B2112,2013-01-29 12:46:00,
2013-01-29 07:51:00,45.7,44.9,30.16,NW,315,0.0,0.0,97,0.00,,,0.00,LWC V2.00 B2112,2013-01-29 12:51:00,
2013-01-29 07:56:00,45.8,45.0,30.16,NW,315,0.0,0.0,97,0.00,,,0.00,LWC V2.00 B2112,2013-01-29 12:56:00,
2013-01-29 08:01:00,45.7,44.9,30.16,NW,315,0.0,0.0,97,0.00,,,0.00,LWC V2.00 B2112,2013-01-29 13:01:00,
2013-01-29 08:06:00,45.4,44.6,30.16,NW,315,0.0,0.0,97,0.00,,,0.00,LWC V2.00 B2112,2013-01-29 13:06:00,
2013-01-29 08:11:00,45.2,44.4,30.16,NW,315,0.0,0.0,97,0.00,,,0.00,LWC V2.00 B2112,2013-01-29 13:11:00,
2013-01-29 08:16:00,45.4,44.6,30.16,NW,315,0.0,0.0,97,0.00,,,0.00,LWC V2.00 B2112,2013-01-29 13:16:00,
2013-01-29 08:21:00,45.5,44.7,30.16,NW,315,0.0,0.0,97,0.00,,,0.00,LWC V2.00 B2112,2013-01-29 13:21:00,
2013-01-29 08:26:00,45.7,44.9,30.16,NW,315,0.0,0.0,97,0.00,,,0.00,LWC V2.00 B2112,2013-01-29 13:26:00,
2013-01-29 08:31:00,46.0,45.5,30.16,NW,315,0.0,0.0,98,0.00,,,0.00,LWC V2.00 B2112,2013-01-29 13:31:00,
2013-01-29 08:36:00,46.2,45.7,30.16,NW,315,0.0,0.0,98,0.00,,,0.00,LWC V2.00 B2112,2013-01-29 13:36:00,
2013-01-29 08:41:00,46.7,46.2,30.16,NW,315,0.0,0.0,98,0.00,,,0.00,LWC V2.00 B2112,2013-01-29 13:41:00,
2013-01-29 08:46:00,47.3,46.8,30.16,NW,315,0.0,0.0,98,0.00,,,0.00,LWC V2.00 B2112,2013-01-29 13:46:00,
2013-01-29 08:51:00,47.7,47.2,30.17,NW,315,0.0,0.0,98,0.00,,,0.00,LWC V2.00 B2112,2013-01-29 13:51:00,
2013-01-29 08:56:00,48.2,47.7,30.17,NW,315,0.0,0.0,98,0.00,,,0.00,LWC V2.00 B2112,2013-01-29 13:56:00,
2013-01-29 09:01:00,48.5,48.0,30.17,NW,315,0.0,0.0,98,0.00,,,0.00,LWC V2.00 B2112,2013-01-29 14:01:00,
2013-01-29 09:06:00,48.9,48.4,30.17,NW,315,0.0,0.0,98,0.00,,,0.00,LWC V2.00 B2112,2013-01-29 14:06:00,
2013-01-29 09:11:00,49.4,48.9,30.17,NW,315,0.0,0.0,98,0.00,,,0.00,LWC V2.00 B2112,2013-01-29 14:11:00,
2013-01-29 09:16:00,50.1,49.6,30.17,NW,315,0.0,0.0,98,0.00,,,0.00,LWC V2.00 B2112,2013-01-29 14:16:00,
2013-01-29 09:21:00,50.7,49.9,30.16,NW,315,0.0,0.0,97,0.00,,,0.00,LWC V2.00 B2112,2013-01-29 14:21:00,
2013-01-29 09:26:00,51.3,50.2,30.16,NW,315,0.0,0.0,96,0.00,,,0.00,LWC V2.00 B2112,2013-01-29 14:26:00,
2013-01-29 09:31:00,51.9,50.2,30.16,NW,315,0.0,1.0,94,0.00,,,0.00,LWC V2.00 B2112,2013-01-29 14:31:00,
2013-01-29 09:36:00,52.6,50.0,30.16,NW,315,0.0,0.0,91,0.00,,,0.00,LWC V2.00 B2112,2013-01-29 14:36:00,
2013-01-29 09:41:00,53.3,50.1,30.16,NW,317,0.0,1.0,89,0.00,,,0.00,LWC V2.00 B2112,2013-01-29 14:41:00,
2013-01-29 09:46:00,54.1,50.0,30.16,NW,317,0.0,0.0,86,0.00,,,0.00,LWC V2.00 B2112,2013-01-29 14:46:00,
2013-01-29 09:51:00,55.0,50.3,30.16,NW,317,0.0,1.0,84,0.00,,,0.00,LWC V2.00 B2112,2013-01-29 14:51:00,
2013-01-29 09:56:00,55.6,50.5,30.16,NW,318,0.0,2.0,83,0.00,,,0.00,LWC V2.00 B2112,2013-01-29 14:56:00,
2013-01-29 10:01:00,56.0,50.2,30.16,NW,313,0.0,1.0,81,0.00,,,0.00,LWC V2.00 B2112,2013-01-29 15:01:00,
2013-01-29 10:06:00,56.6,50.2,30.16,NW,313,0.0,1.0,79,0.00,,,0.00,LWC V2.00 B2112,2013-01-29 15:06:00,
2013-01-29 10:11:00,57.0,50.2,30.16,NW,313,0.0,2.0,78,0.00,,,0.00,LWC V2.00 B2112,2013-01-29 15:11:00,
2013-01-29 10:16:00,57.5,50.3,30.16,South,191,0.0,2.0,77,0.00,,,0.00,LWC V2.00 B2112,2013-01-29 15:16:00,
2013-01-29 10:21:00,58.1,50.6,30.16,SW,219,0.0,1.0,76,0.00,,,0.00,LWC V2.00 B2112,2013-01-29 15:21:00,
2013-01-29 10:26:00,58.7,50.8,30.16,West,275,1.0,2.0,75,0.00,,,0.00,LWC V2.00 B2112,2013-01-29 15:26:00,
2013-01-29 10:31:00,59.3,50.6,30.16,North,351,0.0,2.0,73,0.00,,,0.00,LWC V2.00 B2112,2013-01-29 15:31:00,
2013-01-29 10:36:00,59.9,50.8,30.16,SSW,202,0.0,1.0,72,0.00,,,0.00,LWC V2.00 B2112,2013-01-29 15:36:00,
2013-01-29 10:41:00,60.4,51.0,30.16,West,265,0.0,2.0,71,0.00,,,0.00,LWC V2.00 B2112,2013-01-29 15:41:00,
2013-01-29 10:46:00,60.9,51.4,30.16,West,265,0.0,1.0,71,0.00,,,0.00,LWC V2.00 B2112,2013-01-29 15:46:00,
2013-01-29 10:51:00,61.2,51.3,30.16,West,280,0.0,1.0,70,0.00,,,0.00,LWC V2.00 B2112,2013-01-29 15:51:00,
2013-01-29 10:56:00,61.8,51.9,30.16,West,280,0.0,0.0,70,0.00,,,0.00,LWC V2.00 B2112,2013-01-29 15:56:00,
2013-01-29 11:01:00,62.4,51.7,30.16,SSW,196,0.0,1.0,68,0.00,,,0.00,LWC V2.00 B2112,2013-01-29 16:01:00,
2013-01-29 11:06:00,62.9,52.2,30.16,West,266,0.0,4.0,68,0.00,,,0.00,LWC V2.00 B2112,2013-01-29 16:06:00,
2013-01-29 11:11:00,63.5,51.9,30.16,West,267,1.0,2.0,66,0.00,,,0.00,LWC V2.00 B2112,2013-01-29 16:11:00,
2013-01-29 11:16:00,63.9,51.9,30.16,ESE,109,0.0,2.0,65,0.00,,,0.00,LWC V2.00 B2112,2013-01-29 16:16:00,
2013-01-29 11:21:00,64.0,52.0,30.16,NE,52,0.0,1.0,65,0.00,,,0.00,LWC V2.00 B2112,2013-01-29 16:21:00,
2013-01-29 11:26:00,64.3,52.3,30.16,WSW,246,0.0,2.0,65,0.00,,,0.00,LWC V2.00 B2112,2013-01-29 16:26:00,
2013-01-29 11:31:00,64.5,52.9,30.16,East,96,0.0,2.0,66,0.00,,,0.00,LWC V2.00 B2112,2013-01-29 16:31:00,
2013-01-29 11:36:00,65.2,53.1,30.14,SSW,198,0.0,2.0,65,0.00,,,0.00,LWC V2.00 B2112,2013-01-29 16:36:00,
2013-01-29 11:41:00,65.2,52.7,30.14,East,83,0.0,3.0,64,0.00,,,0.00,LWC V2.00 B2112,2013-01-29 16:41:00,
2013-01-29 11:46:00,65.5,53.0,30.14,SSW,198,0.0,1.0,64,0.00,,,0.00,LWC V2.00 B2112,2013-01-29 16:46:00,
2013-01-29 11:51:00,65.6,53.5,30.14,SSW,207,0.0,2.0,65,0.00,,,0.00,LWC V2.00 B2112,2013-01-29 16:51:00,
2013-01-29 11:56:00,66.1,52.7,30.14,South,178,0.0,2.0,62,0.00,,,0.00,LWC V2.00 B2112,2013-01-29 16:56:00,
2013-01-29 12:01:00,66.1,52.7,30.14,SSW,203,0.0,2.0,62,0.00,,,0.00,LWC V2.00 B2112,2013-01-29 17:01:00,
2013-01-29 12:06:00,66.3,53.3,30.13,SSW,196,0.0,2.0,63,0.00,,,0.00,LWC V2.00 B2112,2013-01-29 17:06:00,
2013-01-29 12:11:00,66.9,53.4,30.13,South,190,0.0,1.0,62,0.00,,,0.00,LWC V2.00 B2112,2013-01-29 17:11:00,
2013-01-29 12:16:00,67.3,52.9,30.13,WNW,285,0.0,2.0,60,0.00,,,0.00,LWC V2.00 B2112,2013-01-29 17:16:00,
2013-01-29 12:21:00,66.9,53.0,30.12,NW,305,0.0,1.0,61,0.00,,,0.00,LWC V2.00 B2112,2013-01-29 17:21:00,
2013-01-29 12:26:00,66.9,53.0,30.12,NW,305,0.0,1.0,61,0.00,,,0.00,LWC V2.00 B2112,2013-01-29 17:26:00,
2013-01-29 12:31:00,67.3,53.4,30.12,NW,304,1.0,1.0,61,0.00,,,0.00,LWC V2.00 B2112,2013-01-29 17:31:00,
2013-01-29 12:36:00,67.6,52.8,30.11,WNW,294,0.0,1.0,59,0.00,,,0.00,LWC V2.00 B2112,2013-01-29 17:36:00,
2013-01-29 12:41:00,67.4,53.0,30.11,WNW,294,0.0,2.0,60,0.00,,,0.00,LWC V2.00 B2112,2013-01-29 17:41:00,
2013-01-29 12:46:00,67.6,53.2,30.11,WNW,294,0.0,1.0,60,0.00,,,0.00,LWC V2.00 B2112,2013-01-29 17:46:00,
2013-01-29 12:51:00,68.1,54.1,30.10,WNW,294,0.0,0.0,61,0.00,,,0.00,LWC V2.00 B2112,2013-01-29 17:51:00,
2013-01-29 12:56:00,68.6,53.7,30.10,WNW,294,2.0,2.0,59,0.00,,,0.00,LWC V2.00 B2112,2013-01-29 17:56:00,
2013-01-29 13:01:00,68.8,53.9,30.10,WNW,294,0.0,2.0,59,0.00,,,0.00,LWC V2.00 B2112,2013-01-29 18:01:00,
2013-01-29 13:06:00,68.9,54.0,30.09,North,351,0.0,1.0,59,0.00,,,0.00,LWC V2.00 B2112,2013-01-29 18:06:00,
2013-01-29 13:11:00,68.9,54.0,30.09,WSW,241,0.0,3.0,59,0.00,,,0.00,LWC V2.00 B2112,2013-01-29 18:11:00,
2013-01-29 13:16:00,69.3,54.3,30.09,ENE,78,0.0,1.0,59,0.00,,,0.00,LWC V2.00 B2112,2013-01-29 18:16:00,
2013-01-29 13:21:00,69.8,55.7,30.08,WSW,244,0.0,1.0,61,0.00,,,0.00,LWC V2.00 B2112,2013-01-29 18:21:00,
2013-01-29 13:26:00,69.8,54.3,30.08,South,173,0.0,0.0,58,0.00,,,0.00,LWC V2.00 B2112,2013-01-29 18:26:00,
2013-01-29 13:31:00,69.9,54.4,30.08,East,91,1.0,2.0,58,0.00,,,0.00,LWC V2.00 B2112,2013-01-29 18:31:00,
2013-01-29 13:36:00,69.8,54.8,30.08,ESE,123,0.0,0.0,59,0.00,,,0.00,LWC V2.00 B2112,2013-01-29 18:36:00,
2013-01-29 13:41:00,69.8,54.8,30.08,SW,227,0.0,1.0,59,0.00,,,0.00,LWC V2.00 B2112,2013-01-29 18:41:00,
2013-01-29 13:46:00,69.9,54.9,30.08,SW,227,0.0,1.0,59,0.00,,,0.00,LWC V2.00 B2112,2013-01-29 18:46:00,
2013-01-29 13:51:00,69.9,54.9,30.07,SW,227,0.0,0.0,59,0.00,,,0.00,LWC V2.00 B2112,2013-01-29 18:51:00,
2013-01-29 13:56:00,70.1,55.1,30.07,West,261,0.0,1.0,59,0.00,,,0.00,LWC V2.00 B2112,2013-01-29 18:56:00,
2013-01-29 14:01:00,70.4,55.4,30.07,WSW,248,0.0,0.0,59,0.00,,,0.00,LWC V2.00 B2112,2013-01-29 19:01:00,
2013-01-29 14:06:00,70.8,55.3,30.07,North,355,1.0,2.0,58,0.00,,,0.00,LWC V2.00 B2112,2013-01-29 19:06:00,
2013-01-29 14:11:00,70.8,55.3,30.07,North,355,0.0,0.0,58,0.00,,,0.00,LWC V2.00 B2112,2013-01-29 19:11:00,
2013-01-29 14:16:00,70.8,55.8,30.07,North,355,0.0,1.0,59,0.00,,,0.00,LWC V2.00 B2112,2013-01-29 19:16:00,
2013-01-29 14:21:00,70.8,55.8,30.06,North,351,1.0,1.0,59,0.00,,,0.00,LWC V2.00 B2112,2013-01-29 19:21:00,
2013-01-29 14:26:00,70.8,55.3,30.06,North,350,0.0,2.0,58,0.00,,,0.00,LWC V2.00 B2112,2013-01-29 19:26:00,
2013-01-29 14:31:00,70.9,55.4,30.06,North,350,0.0,0.0,58,0.00,,,0.00,LWC V2.00 B2112,2013-01-29 19:31:00,
2013-01-29 14:36:00,71.1,55.6,30.05,North,350,0.0,0.0,58,0.00,,,0.00,LWC V2.00 B2112,2013-01-29 19:36:00,
2013-01-29 14:41:00,71.3,55.7,30.05,North,350,0.0,1.0,58,0.00,,,0.00,LWC V2.00 B2112,2013-01-29 19:41:00,
2013-01-29 14:46:00,72.0,55.4,30.05,North,350,0.0,0.0,56,0.00,,,0.00,LWC V2.00 B2112,2013-01-29 19:46:00,
2013-01-29 14:51:00,72.1,55.5,30.05,North,350,0.0,0.0,56,0.00,,,0.00,LWC V2.00 B2112,2013-01-29 19:51:00,
2013-01-29 14:56:00,72.5,55.9,30.05,North,350,0.0,1.0,56,0.00,,,0.00,LWC V2.00 B2112,2013-01-29 19:56:00,
2013-01-29 15:01:00,72.8,55.7,30.05,NW,316,0.0,1.0,55,0.00,,,0.00,LWC V2.00 B2112,2013-01-29 20:01:00,
2013-01-29 15:06:00,72.7,55.1,30.05,NW,316,0.0,1.0,54,0.00,,,0.00,LWC V2.00 B2112,2013-01-29 20:06:00,
2013-01-29 15:11:00,72.7,55.1,30.05,NW,316,0.0,1.0,54,0.00,,,0.00,LWC V2.00 B2112,2013-01-29 20:11:00,
2013-01-29 15:16:00,72.7,55.6,30.05,NW,316,0.0,0.0,55,0.00,,,0.00,LWC V2.00 B2112,2013-01-29 20:16:00,
2013-01-29 15:21:00,72.7,55.6,30.05,NW,316,0.0,1.0,55,0.00,,,0.00,LWC V2.00 B2112,2013-01-29 20:21:00,
2013-01-29 15:26:00,72.7,55.6,30.05,NW,317,0.0,2.0,55,0.00,,,0.00,LWC V2.00 B2112,2013-01-29 20:26:00,
2013-01-29 15:31:00,72.7,55.1,30.05,NW,317,0.0,1.0,54,0.00,,,0.00,LWC V2.00 B2112,2013-01-29 20:31:00,
2013-01-29 15:36:00,72.7,55.1,30.05,NW,317,0.0,2.0,54,0.00,,,0.00,LWC V2.00 B2112,2013-01-29 20:36:00,
2013-01-29 15:41:00,72.5,54.9,30.05,NW,317,0.0,1.0,54,0.00,,,0.00,LWC V2.00 B2112,2013-01-29 20:41:00,
2013-01-29 15:46:00,72.5,54.9,30.05,NW,317,0.0,0.0,54,0.00,,,0.00,LWC V2.00 B2112,2013-01-29 20:46:00,
2013-01-29 15:51:00,72.5,55.4,30.05,NW,317,0.0,1.0,55,0.00,,,0.00,LWC V2.00 B2112,2013-01-29 20:51:00,
2013-01-29 15:56:00,72.5,54.9,30.05,NW,313,0.0,1.0,54,0.00,,,0.00,LWC V2.00 B2112,2013-01-29 20:56:00,
2013-01-29 16:01:00,72.5,54.9,30.05,West,281,0.0,3.0,54,0.00,,,0.00,LWC V2.00 B2112,2013-01-29 21:01:00,
2013-01-29 16:06:00,72.5,55.4,30.05,West,281,0.0,1.0,55,0.00,,,0.00,LWC V2.00 B2112,2013-01-29 21:06:00,
2013-01-29 16:11:00,72.5,55.4,30.05,West,281,0.0,0.0,55,0.00,,,0.00,LWC V2.00 B2112,2013-01-29 21:11:00,
2013-01-29 16:16:00,72.3,54.7,30.05,WSW,250,0.0,1.0,54,0.00,,,0.00,LWC V2.00 B2112,2013-01-29 21:16:00,
2013-01-29 16:21:00,72.1,55.0,30.05,WSW,250,0.0,0.0,55,0.00,,,0.00,LWC V2.00 B2112,2013-01-29 21:21:00,
2013-01-29 16:26:00,71.8,55.2,30.05,WSW,250,0.0,1.0,56,0.00,,,0.00,LWC V2.00 B2112,2013-01-29 21:26:00,
2013-01-29 16:31:00,71.6,54.6,30.05,NW,323,0.0,2.0,55,0.00,,,0.00,LWC V2.00 B2112,2013-01-29 21:31:00,
2013-01-29 16:36:00,71.5,54.5,30.05,NW,323,0.0,1.0,55,0.00,,,0.00,LWC V2.00 B2112,2013-01-29 21:36:00,
2013-01-29 16:41:00,71.3,54.8,30.05,NW,323,0.0,0.0,56,0.00,,,0.00,LWC V2.00 B2112,2013-01-29 21:41:00,
2013-01-29 16:46:00,71.1,55.1,30.05,NW,323,0.0,0.0,57,0.00,,,0.00,LWC V2.00 B2112,2013-01-29 21:46:00,
2013-01-29 16:51:00,70.8,55.3,30.05,NW,323,0.0,0.0,58,0.00,,,0.00,LWC V2.00 B2112,2013-01-29 21:51:00,
2013-01-29 16:56:00,70.4,54.9,30.05,NW,323,0.0,0.0,58,0.00,,,0.00,LWC V2.00 B2112,2013-01-29 21:56:00,
2013-01-29 17:01:00,69.9,54.9,30.05,NW,323,0.0,0.0,59,0.00,,,0.00,LWC V2.00 B2112,2013-01-29 22:01:00,
2013-01-29 17:06:00,69.6,55.1,30.05,NW,323,0.0,0.0,60,0.00,,,0.00,LWC V2.00 B2112,2013-01-29 22:06:00,
2013-01-29 17:11:00,68.9,55.3,30.05,NW,323,0.0,0.0,62,0.00,,,0.00,LWC V2.00 B2112,2013-01-29 22:11:00,
2013-01-29 17:16:00,68.4,55.3,30.05,NW,323,0.0,0.0,63,0.00,,,0.00,LWC V2.00 B2112,2013-01-29 22:16:00,
2013-01-29 17:21:00,67.8,55.2,30.05,NW,323,0.0,0.0,64,0.00,,,0.00,LWC V2.00 B2112,2013-01-29 22:21:00,
2013-01-29 17:26:00,67.1,54.9,30.05,NW,323,0.0,1.0,65,0.00,,,0.00,LWC V2.00 B2112,2013-01-29 22:26:00,
2013-01-29 17:31:00,66.6,54.9,30.05,NW,323,0.0,0.0,66,0.00,,,0.00,LWC V2.00 B2112,2013-01-29 22:31:00,
2013-01-29 17:36:00,66.1,54.8,30.05,NW,323,0.0,0.0,67,0.00,,,0.00,LWC V2.00 B2112,2013-01-29 22:36:00,
2013-01-29 17:41:00,65.6,54.7,30.05,NW,323,0.0,0.0,68,0.00,,,0.00,LWC V2.00 B2112,2013-01-29 22:41:00,
2013-01-29 17:46:00,65.2,54.4,30.05,NW,323,0.0,0.0,68,0.00,,,0.00,LWC V2.00 B2112,2013-01-29 22:46:00,
2013-01-29 17:51:00,64.8,54.4,30.05,NW,323,0.0,0.0,69,0.00,,,0.00,LWC V2.00 B2112,2013-01-29 22:51:00,
2013-01-29 17:56:00,64.3,54.3,30.05,NW,323,0.0,0.0,70,0.00,,,0.00,LWC V2.00 B2112,2013-01-29 22:56:00,
2013-01-29 18:01:00,63.9,53.9,30.05,NW,323,0.0,0.0,70,0.00,,,0.00,LWC V2.00 B2112,2013-01-29 23:01:00,
2013-01-29 18:06:00,63.4,53.8,30.04,NW,323,0.0,0.0,71,0.00,,,0.00,LWC V2.00 B2112,2013-01-29 23:06:00,
2013-01-29 18:11:00,62.9,53.7,30.04,NW,323,0.0,0.0,72,0.00,,,0.00,LWC V2.00 B2112,2013-01-29 23:11:00,
2013-01-29 18:16:00,62.3,53.5,30.04,NW,323,0.0,0.0,73,0.00,,,0.00,LWC V2.00 B2112,2013-01-29 23:16:00,
2013-01-29 18:21:00,61.8,53.4,30.05,NW,323,0.0,0.0,74,0.00,,,0.00,LWC V2.00 B2112,2013-01-29 23:21:00,
2013-01-29 18:26:00,61.3,53.3,30.05,NW,323,0.0,0.0,75,0.00,,,0.00,LWC V2.00 B2112,2013-01-29 23:26:00,
2013-01-29 18:31:00,61.0,53.0,30.05,NW,323,0.0,0.0,75,0.00,,,0.00,LWC V2.00 B2112,2013-01-29 23:31:00,
2013-01-29 18:36:00,60.5,52.9,30.04,NW,323,0.0,0.0,76,0.00,,,0.00,LWC V2.00 B2112,2013-01-29 23:36:00,
2013-01-29 18:41:00,60.1,52.5,30.04,NW,323,0.0,0.0,76,0.00,,,0.00,LWC V2.00 B2112,2013-01-29 23:41:00,
2013-01-29 18:46:00,59.8,52.6,30.04,NW,323,0.0,0.0,77,0.00,,,0.00,LWC V2.00 B2112,2013-01-29 23:46:00,
2013-01-29 18:51:00,59.5,52.6,30.04,NW,323,0.0,0.0,78,0.00,,,0.00,LWC V2.00 B2112,2013-01-29 23:51:00,
2013-01-29 18:56:00,59.0,52.1,30.04,NW,323,0.0,0.0,78,0.00,,,0.00,LWC V2.00 B2112,2013-01-29 23:56:00,
2013-01-29 19:01:00,58.7,52.2,30.04,NW,323,0.0,0.0,79,0.00,,,0.00,LWC V2.00 B2112,2013-01-30 00:01:00,
2013-01-29 19:06:00,58.4,52.3,30.04,NW,323,0.0,0.0,80,0.00,,,0.00,LWC V2.00 B2112,2013-01-30 00:06:00,
2013-01-29 19:11:00,58.1,52.3,30.04,NW,323,0.0,0.0,81,0.00,,,0.00,LWC V2.00 B2112,2013-01-30 00:11:00,
2013-01-29 19:16:00,57.8,52.0,30.04,NW,323,0.0,0.0,81,0.00,,,0.00,LWC V2.00 B2112,2013-01-30 00:16:00,
2013-01-29 19:21:00,57.3,51.8,30.04,NW,323,0.0,0.0,82,0.00,,,0.00,LWC V2.00 B2112,2013-01-30 00:21:00,
2013-01-29 19:26:00,57.0,51.9,30.04,NW,323,0.0,0.0,83,0.00,,,0.00,LWC V2.00 B2112,2013-01-30 00:26:00,
2013-01-29 19:31:00,56.9,51.8,30.04,NW,323,0.0,0.0,83,0.00,,,0.00,LWC V2.00 B2112,2013-01-30 00:31:00,
2013-01-29 19:36:00,56.6,51.5,30.04,NW,323,0.0,0.0,83,0.00,,,0.00,LWC V2.00 B2112,2013-01-30 00:36:00,
2013-01-29 19:41:00,56.5,51.4,30.04,NW,323,0.0,0.0,83,0.00,,,0.00,LWC V2.00 B2112,2013-01-30 00:41:00,
2013-01-29 19:46:00,56.2,51.4,30.04,NW,323,0.0,0.0,84,0.00,,,0.00,LWC V2.00 B2112,2013-01-30 00:46:00,
2013-01-29 19:51:00,55.9,51.1,30.03,NW,323,0.0,0.0,84,0.00,,,0.00,LWC V2.00 B2112,2013-01-30 00:51:00,
2013-01-29 19:56:00,55.6,50.8,30.03,NW,323,0.0,0.0,84,0.00,,,0.00,LWC V2.00 B2112,2013-01-30 00:56:00,
2013-01-29 20:01:00,55.4,51.3,30.03,NW,323,0.0,0.0,86,0.00,,,0.00,LWC V2.00 B2112,2013-01-30 01:01:00,
2013-01-29 20:06:00,55.3,51.2,30.03,NW,323,0.0,0.0,86,0.00,,,0.00,LWC V2.00 B2112,2013-01-30 01:06:00,
2013-01-29 20:11:00,55.1,51.0,30.03,NW,323,0.0,0.0,86,0.00,,,0.00,LWC V2.00 B2112,2013-01-30 01:11:00,
2013-01-29 20:16:00,55.0,50.9,30.03,NW,323,0.0,0.0,86,0.00,,,0.00,LWC V2.00 B2112,2013-01-30 01:16:00,
2013-01-29 20:21:00,54.8,50.7,30.03,NW,323,0.0,0.0,86,0.00,,,0.00,LWC V2.00 B2112,2013-01-30 01:21:00,
2013-01-29 20:26:00,54.7,50.9,30.03,NW,323,0.0,0.0,87,0.00,,,0.00,LWC V2.00 B2112,2013-01-30 01:26:00,
2013-01-29 20:31:00,54.5,50.7,30.03,NW,323,0.0,0.0,87,0.00,,,0.00,LWC V2.00 B2112,2013-01-30 01:31:00,
2013-01-29 20:36:00,54.2,50.4,30.03,NW,323,0.0,0.0,87,0.00,,,0.00,LWC V2.00 B2112,2013-01-30 01:36:00,
2013-01-29 20:41:00,54.1,50.6,30.03,NW,323,0.0,0.0,88,0.00,,,0.00,LWC V2.00 B2112,2013-01-30 01:41:00,
2013-01-29 20:46:00,54.1,50.6,30.03,NW,323,0.0,0.0,88,0.00,,,0.00,LWC V2.00 B2112,2013-01-30 01:46:00,
2013-01-29 20:51:00,54.1,50.9,30.03,NW,323,0.0,0.0,89,0.00,,,0.00,LWC V2.00 B2112,2013-01-30 01:51:00,
2013-01-29 20:56:00,54.1,50.3,30.03,NW,323,0.0,0.0,87,0.00,,,0.00,LWC V2.00 B2112,2013-01-30 01:56:00,
2013-01-29 21:01:00,53.9,50.1,30.03,NW,323,0.0,0.0,87,0.00,,,0.00,LWC V2.00 B2112,2013-01-30 02:01:00,
2013-01-29 21:06:00,53.9,50.4,30.04,NW,323,0.0,0.0,88,0.00,,,0.00,LWC V2.00 B2112,2013-01-30 02:06:00,
2013-01-29 21:11:00,53.9,50.4,30.04,NW,323,0.0,0.0,88,0.00,,,0.00,LWC V2.00 B2112,2013-01-30 02:11:00,
2013-01-29 21:16:00,54.1,50.6,30.04,NW,323,0.0,0.0,88,0.00,,,0.00,LWC V2.00 B2112,2013-01-30 02:16:00,
2013-01-29 21:21:00,54.2,50.7,30.03,NW,323,0.0,0.0,88,0.00,,,0.00,LWC V2.00 B2112,2013-01-30 02:21:00,
2013-01-29 21:26:00,54.2,50.4,30.03,NW,323,0.0,0.0,87,0.00,,,0.00,LWC V2.00 B2112,2013-01-30 02:26:00,
2013-01-29 21:31:00,54.2,50.4,30.03,NW,323,0.0,0.0,87,0.00,,,0.00,LWC V2.00 B2112,2013-01-30 02:31:00,
2013-01-29 21:36:00,54.1,50.3,30.03,NW,323,0.0,0.0,87,0.00,,,0.00,LWC V2.00 B2112,2013-01-30 02:36:00,
2013-01-29 21:41:00,54.1,50.3,30.03,NW,323,0.0,0.0,87,0.00,,,0.00,LWC V2.00 B2112,2013-01-30 02:41:00,
2013-01-29 21:46:00,54.1,50.3,30.03,NW,323,0.0,0.0,87,0.00,,,0.00,LWC V2.00 B2112,2013-01-30 02:46:00,
2013-01-29 21:51:00,53.9,49.8,30.04,NW,323,0.0,0.0,86,0.00,,,0.00,LWC V2.00 B2112,2013-01-30 02:51:00,
2013-01-29 21:56:00,53.9,49.8,30.04,NW,323,0.0,0.0,86,0.00,,,0.00,LWC V2.00 B2112,2013-01-30 02:56:00,
2013-01-29 22:01:00,53.8,49.7,30.04,NW,323,0.0,0.0,86,0.00,,,0.00,LWC V2.00 B2112,2013-01-30 03:01:00,
2013-01-29 22:06:00,53.8,50.0,30.03,NW,323,0.0,0.0,87,0.00,,,0.00,LWC V2.00 B2112,2013-01-30 03:06:00,
2013-01-29 22:11:00,53.9,50.1,30.03,NW,323,0.0,0.0,87,0.00,,,0.00,LWC V2.00 B2112,2013-01-30 03:11:00,
2013-01-29 22:16:00,53.9,50.4,30.03,NW,323,0.0,0.0,88,0.00,,,0.00,LWC V2.00 B2112,2013-01-30 03:16:00,
2013-01-29 22:21:00,54.1,50.9,30.03,NW,323,0.0,0.0,89,0.00,,,0.00,LWC V2.00 B2112,2013-01-30 03:21:00,
2013-01-29 22:26:00,54.1,50.9,30.03,NW,323,0.0,0.0,89,0.00,,,0.00,LWC V2.00 B2112,2013-01-30 03:26:00,
2013-01-29 22:31:00,53.9,50.4,30.03,NW,323,0.0,0.0,88,0.00,,,0.00,LWC V2.00 B2112,2013-01-30 03:31:00,
2013-01-29 22:36:00,53.9,50.4,30.04,NW,323,0.0,0.0,88,0.00,,,0.00,LWC V2.00 B2112,2013-01-30 03:36:00,
2013-01-29 22:41:00,53.8,50.3,30.04,NW,323,0.0,0.0,88,0.00,,,0.00,LWC V2.00 B2112,2013-01-30 03:41:00,
2013-01-29 22:46:00,53.6,50.1,30.04,NW,323,0.0,0.0,88,0.00,,,0.00,LWC V2.00 B2112,2013-01-30 03:46:00,
2013-01-29 22:51:00,53.5,50.0,30.05,NW,323,0.0,0.0,88,0.00,,,0.00,LWC V2.00 B2112,2013-01-30 03:51:00,
2013-01-29 22:56:00,53.3,50.1,30.05,NW,323,0.0,0.0,89,0.00,,,0.00,LWC V2.00 B2112,2013-01-30 03:56:00,
2013-01-29 23:01:00,53.2,50.0,30.05,NW,323,0.0,0.0,89,0.00,,,0.00,LWC V2.00 B2112,2013-01-30 04:01:00,
2013-01-29 23:06:00,53.1,49.9,30.05,NW,323,0.0,0.0,89,0.00,,,0.00,LWC V2.00 B2112,2013-01-30 04:06:00,
2013-01-29 23:11:00,52.9,49.7,30.05,NW,323,0.0,0.0,89,0.00,,,0.00,LWC V2.00 B2112,2013-01-30 04:11:00,
2013-01-29 23:16:00,52.8,49.6,30.05,NW,323,0.0,0.0,89,0.00,,,0.00,LWC V2.00 B2112,2013-01-30 04:16:00,
2013-01-29 23:21:00,52.8,49.6,30.05,NW,323,0.0,0.0,89,0.00,,,0.00,LWC V2.00 B2112,2013-01-30 04:21:00,
2013-01-29 23:26:00,52.6,49.8,30.05,NW,323,0.0,0.0,90,0.00,,,0.00,LWC V2.00 B2112,2013-01-30 04:26:00,
2013-01-29 23:31:00,52.6,49.8,30.05,NW,323,0.0,0.0,90,0.00,,,0.00,LWC V2.00 B2112,2013-01-30 04:31:00,
2013-01-29 23:36:00,52.6,50.0,30.03,NW,323,0.0,0.0,91,0.00,,,0.00,LWC V2.00 B2112,2013-01-30 04:36:00,
2013-01-29 23:41:00,52.5,49.9,30.03,NW,323,0.0,0.0,91,0.00,,,0.00,LWC V2.00 B2112,2013-01-30 04:41:00,
2013-01-29 23:46:00,52.5,50.2,30.03,NW,323,0.0,0.0,92,0.00,,,0.00,LWC V2.00 B2112,2013-01-30 04:46:00,
2013-01-29 23:51:00,52.5,50.2,30.03,NW,323,0.0,0.0,92,0.00,,,0.00,LWC V2.00 B2112,2013-01-30 04:51:00,
2013-01-29 23:56:00,52.5,50.2,30.03,NW,323,0.0,0.0,92,0.00,,,0.00,LWC V2.00 B2112,2013-01-30 04:56:00,